Halesowen, United Kingdom
Current Conditions -  °F | °C
As of 6:20 PM on Wednesday 28 Jan 2015 (Local Time) from EGBB Reporting Station
Few Clouds Few Clouds  
Wind Chill: 31°   Ceiling: Unl
Heat Index: 39°   Visibility: 6mi
Dew Point: 27°   Wind: 15mph
Humidity: 61%   Direction: 250°WSW
Pressure: 29.53"   Gusts: NA
Location:  52.45°N, 2.05°W
Report Text: EGBB 281820Z 25013KT 210V280 9999 FEW041 04/M03 Q1000
Loading
Personal Weather Stations






























Interactive Weather Map New forecast layout! Learn more

10-Day Weather Forecast

Advertisements
Track Severe Weather on mobile